createdAt,value
2022-12-16T00:00:19.366Z,65.20
2022-12-16T00:02:53.451Z,58.20
2022-12-16T00:05:29.703Z,62.00
2022-12-16T00:08:06.849Z,58.93
2022-12-16T00:10:55.900Z,59.60
2022-12-16T00:13:30.194Z,60.03
2022-12-16T00:16:08.375Z,63.17
2022-12-16T00:18:43.570Z,62.05
2022-12-16T00:21:19.279Z,68.43
2022-12-16T00:23:56.291Z,61.10
2022-12-16T00:26:31.527Z,60.47
2022-12-16T00:29:06.748Z,59.67
2022-12-16T00:31:40.958Z,72.55
2022-12-16T00:34:16.936Z,68.07
2022-12-16T00:36:53.999Z,63.77
2022-12-16T00:39:31.996Z,63.17
2022-12-16T00:42:07.035Z,57.63
2022-12-16T00:44:42.297Z,54.28
2022-12-16T00:47:17.344Z,53.87
2022-12-16T00:49:52.277Z,50.65
2022-12-16T00:52:27.358Z,50.80
2022-12-16T00:55:04.341Z,52.50
2022-12-16T00:57:38.242Z,48.13
2022-12-16T01:00:15.610Z,49.65
2022-12-16T01:02:50.974Z,49.80
2022-12-16T01:05:27.164Z,47.50
2022-12-16T01:08:02.765Z,47.40
2022-12-16T01:10:40.822Z,47.03
2022-12-16T01:13:16.417Z,44.33
2022-12-16T01:15:50.509Z,44.57
2022-12-16T01:18:28.443Z,45.87
2022-12-16T01:21:05.990Z,43.55
2022-12-16T01:23:41.430Z,44.05
2022-12-16T01:26:21.556Z,40.30
2022-12-16T01:28:57.139Z,43.30
2022-12-16T01:31:37.578Z,41.45
2022-12-16T01:34:12.520Z,42.15
2022-12-16T01:36:47.720Z,39.17
2022-12-16T01:39:23.618Z,42.33
2022-12-16T01:42:00.446Z,39.85
2022-12-16T01:44:37.670Z,40.77
2022-12-16T01:47:16.366Z,39.70
2022-12-16T01:49:51.830Z,37.67
2022-12-16T01:52:29.205Z,38.97
2022-12-16T01:55:05.649Z,38.25
2022-12-16T01:57:45.994Z,37.23
2022-12-16T02:00:21.255Z,36.83
2022-12-16T02:02:56.490Z,36.03
2022-12-16T02:05:33.913Z,40.10
2022-12-16T02:08:16.474Z,38.28
2022-12-16T02:11:12.671Z,36.97
2022-12-16T02:14:08.704Z,38.87
2022-12-16T02:16:42.778Z,40.05
2022-12-16T02:19:28.675Z,38.83
2022-12-16T02:22:04.231Z,39.58
2022-12-16T02:25:01.801Z,37.88
2022-12-16T02:28:02.004Z,38.75
2022-12-16T02:31:02.087Z,36.58
2022-12-16T02:33:56.770Z,37.55
2022-12-16T02:36:40.379Z,37.63
2022-12-16T02:39:18.452Z,35.20
2022-12-16T02:41:55.966Z,34.28
2022-12-16T02:44:34.743Z,34.25
2022-12-16T02:47:12.722Z,35.95
2022-12-16T02:49:49.748Z,33.35
2022-12-16T02:52:26.345Z,36.40
2022-12-16T02:55:03.145Z,36.07
2022-12-16T02:57:56.295Z,32.97
2022-12-16T03:00:31.962Z,34.33
2022-12-16T03:03:11.230Z,35.20
2022-12-16T03:05:49.616Z,33.15
2022-12-16T03:08:27.436Z,32.85
2022-12-16T03:11:03.999Z,34.20
2022-12-16T03:13:41.199Z,34.25
2022-12-16T03:16:14.360Z,32.45
2022-12-16T03:18:52.684Z,32.93
2022-12-16T03:21:32.576Z,32.03
2022-12-16T03:24:08.615Z,33.78
2022-12-16T03:26:44.893Z,33.65
2022-12-16T03:29:23.038Z,33.33
2022-12-16T03:31:59.851Z,32.00
2022-12-16T03:34:39.756Z,31.90
2022-12-16T03:37:15.954Z,33.33
2022-12-16T03:42:27.229Z,33.13
2022-12-16T03:45:05.013Z,33.17
2022-12-16T03:47:40.274Z,32.65
2022-12-16T03:50:18.863Z,33.30
2022-12-16T03:52:54.181Z,35.40
2022-12-16T03:55:31.516Z,33.00
2022-12-16T03:58:05.798Z,33.07
2022-12-16T04:00:41.111Z,32.10
2022-12-16T04:03:15.909Z,33.78
2022-12-16T04:05:55.091Z,33.80
2022-12-16T04:08:32.458Z,32.60
2022-12-16T04:11:18.969Z,31.87
2022-12-16T04:14:06.600Z,33.40
2022-12-16T04:16:52.715Z,33.33
2022-12-16T04:19:40.289Z,31.87
2022-12-16T04:22:32.661Z,32.63
2022-12-16T04:25:08.914Z,32.58
2022-12-16T04:27:47.170Z,30.53
2022-12-16T04:30:24.941Z,32.58
2022-12-16T04:33:14.299Z,32.65
2022-12-16T04:36:01.321Z,31.52
2022-12-16T04:38:55.740Z,30.83
2022-12-16T04:41:41.712Z,31.10
2022-12-16T04:44:29.866Z,29.77
2022-12-16T04:47:16.723Z,32.10
2022-12-16T04:52:46.980Z,29.60
2022-12-16T04:55:36.650Z,29.80
2022-12-16T04:58:22.814Z,30.15
2022-12-16T05:01:10.563Z,29.50
2022-12-16T05:03:57.263Z,30.10
2022-12-16T05:09:41.539Z,26.88
2022-12-16T05:12:31.037Z,29.88
2022-12-16T05:15:17.812Z,28.35
2022-12-16T05:18:05.184Z,28.85
2022-12-16T05:20:50.999Z,28.35
2022-12-16T05:23:38.439Z,30.42
2022-12-16T05:26:25.020Z,29.85
2022-12-16T05:32:03.442Z,28.70
2022-12-16T05:34:50.195Z,31.30
2022-12-16T05:37:39.532Z,30.27
2022-12-16T05:40:27.306Z,31.50
2022-12-16T05:43:28.646Z,29.08
2022-12-16T05:46:17.685Z,31.77
2022-12-16T05:49:05.223Z,30.05
2022-12-16T05:51:51.846Z,31.33
2022-12-16T05:57:29.962Z,29.05
2022-12-16T06:00:16.136Z,30.67
2022-12-16T06:03:06.345Z,29.70
2022-12-16T06:05:56.198Z,28.90
2022-12-16T06:08:43.046Z,29.93
2022-12-16T06:11:30.357Z,29.57
2022-12-16T06:14:16.875Z,29.55
2022-12-16T06:17:04.673Z,29.35
2022-12-16T06:19:54.028Z,33.20
2022-12-16T06:22:41.281Z,35.72
2022-12-16T06:25:30.762Z,31.30
2022-12-16T06:28:16.953Z,32.03
2022-12-16T06:31:05.165Z,32.65
2022-12-16T06:33:54.947Z,30.67
2022-12-16T06:36:44.735Z,32.42
2022-12-16T06:39:31.913Z,38.60
2022-12-16T06:42:19.779Z,42.53
2022-12-16T06:45:06.939Z,42.05
2022-12-16T06:47:54.581Z,37.92
2022-12-16T06:50:44.816Z,37.67
2022-12-16T06:53:37.984Z,38.38
2022-12-16T06:56:26.288Z,36.10
2022-12-16T06:59:13.719Z,37.63
2022-12-16T07:02:00.338Z,35.20
2022-12-16T07:07:34.691Z,34.88
2022-12-16T07:10:28.255Z,35.10
2022-12-16T07:13:15.336Z,35.80
2022-12-16T07:16:02.510Z,36.67
2022-12-16T07:18:48.636Z,36.20
2022-12-16T07:21:35.834Z,35.90
2022-12-16T07:24:23.142Z,34.58
2022-12-16T07:27:13.445Z,34.63
2022-12-16T07:30:00.204Z,35.27
2022-12-16T07:32:47.465Z,34.05
2022-12-16T07:35:34.725Z,36.15
2022-12-16T07:38:21.291Z,33.45
2022-12-16T07:43:57.253Z,34.25
2022-12-16T07:46:43.782Z,35.03
2022-12-16T07:49:31.402Z,33.07
2022-12-16T07:52:16.976Z,33.90
2022-12-16T07:55:04.325Z,35.90
2022-12-16T07:57:50.340Z,34.72
2022-12-16T08:00:40.509Z,39.83
2022-12-16T08:03:28.101Z,34.00
2022-12-16T08:06:20.833Z,36.38
2022-12-16T08:09:08.183Z,36.80
2022-12-16T08:11:55.651Z,36.33
2022-12-16T08:14:44.013Z,37.45
2022-12-16T08:17:34.516Z,40.22
2022-12-16T08:20:31.010Z,38.45
2022-12-16T08:23:18.917Z,40.00
2022-12-16T08:26:06.194Z,39.67
2022-12-16T08:28:53.372Z,39.05
2022-12-16T08:31:40.372Z,43.92
2022-12-16T08:34:31.046Z,43.03
2022-12-16T08:37:18.495Z,40.78
2022-12-16T08:40:34.183Z,42.53
2022-12-16T08:43:15.826Z,41.37
2022-12-16T08:46:03.655Z,44.05
2022-12-16T08:48:51.450Z,48.67
2022-12-16T08:51:40.769Z,44.25
2022-12-16T08:54:28.014Z,42.22
2022-12-16T08:57:14.865Z,46.00
2022-12-16T09:00:02.815Z,43.88
2022-12-16T09:02:51.069Z,46.08
2022-12-16T09:05:38.178Z,45.08
2022-12-16T09:08:28.394Z,42.10
2022-12-16T09:11:16.573Z,45.20
2022-12-16T09:14:03.524Z,45.55
2022-12-16T09:16:50.074Z,46.35
2022-12-16T09:22:23.314Z,50.00
2022-12-16T09:25:14.319Z,52.80
2022-12-16T09:28:04.274Z,51.22
2022-12-16T09:30:48.849Z,51.08
2022-12-16T09:33:37.229Z,50.33
2022-12-16T09:36:25.829Z,52.33
2022-12-16T09:39:13.246Z,52.30
2022-12-16T09:42:10.638Z,53.50
2022-12-16T09:45:03.614Z,51.35
2022-12-16T09:47:50.054Z,53.45
2022-12-16T09:50:39.052Z,49.40
2022-12-16T09:53:28.495Z,54.72
2022-12-16T09:56:15.034Z,52.80
2022-12-16T09:59:08.942Z,51.42
2022-12-16T10:01:58.118Z,49.10
2022-12-16T10:04:51.155Z,49.85
2022-12-16T10:07:38.013Z,52.20
2022-12-16T10:10:33.890Z,51.33
2022-12-16T10:13:36.419Z,52.80
2022-12-16T10:16:28.232Z,52.30
2022-12-16T10:19:17.589Z,49.40
2022-12-16T10:22:06.285Z,52.42
2022-12-16T10:25:00.068Z,50.03
2022-12-16T10:27:49.754Z,51.30
2022-12-16T10:30:37.607Z,51.60
2022-12-16T10:33:30.124Z,52.10
2022-12-16T10:36:31.645Z,51.03
2022-12-16T10:39:20.375Z,50.03
2022-12-16T10:42:06.047Z,51.85
2022-12-16T10:44:56.023Z,51.77
2022-12-16T10:47:50.877Z,51.30
2022-12-16T10:50:41.177Z,51.88
2022-12-16T10:53:27.050Z,51.03
2022-12-16T10:56:18.994Z,51.88
2022-12-16T10:59:07.999Z,51.15
2022-12-16T11:01:52.604Z,51.38
2022-12-16T11:04:49.680Z,54.47
2022-12-16T11:07:46.963Z,54.15
2022-12-16T11:10:41.749Z,52.65
2022-12-16T11:13:32.263Z,52.35
2022-12-16T11:16:25.425Z,53.05
2022-12-16T11:19:12.066Z,55.50
2022-12-16T11:24:58.660Z,48.15
2022-12-16T11:27:52.968Z,54.20
2022-12-16T11:30:40.968Z,54.85
2022-12-16T11:33:33.495Z,54.75
2022-12-16T11:36:29.362Z,54.35
2022-12-16T11:39:17.017Z,56.47
2022-12-16T11:42:08.972Z,54.33
2022-12-16T11:44:58.427Z,55.38
2022-12-16T11:47:50.387Z,53.33
2022-12-16T11:50:40.039Z,55.25
2022-12-16T11:53:36.359Z,56.03
2022-12-16T11:56:25.201Z,55.20
2022-12-16T11:59:16.306Z,52.47
2022-12-16T12:02:05.476Z,52.47
2022-12-16T12:04:52.411Z,49.03
2022-12-16T12:07:46.301Z,52.95
2022-12-16T12:10:44.326Z,55.17
2022-12-16T12:13:41.332Z,54.93
2022-12-16T12:16:35.788Z,55.47
2022-12-16T12:19:27.315Z,53.55
2022-12-16T12:22:16.564Z,54.97
2022-12-16T12:25:05.809Z,55.85
2022-12-16T12:27:56.702Z,53.58
2022-12-16T12:30:43.184Z,51.72
2022-12-16T12:33:29.073Z,52.83
2022-12-16T12:36:23.870Z,52.90
2022-12-16T12:39:18.078Z,51.73
2022-12-16T12:42:13.076Z,56.53
2022-12-16T12:44:59.048Z,56.85
2022-12-16T12:47:44.863Z,58.08
2022-12-16T12:50:35.373Z,54.75
2022-12-16T12:53:30.642Z,51.07
2022-12-16T12:56:21.306Z,54.95
2022-12-16T12:59:06.522Z,52.73
2022-12-16T13:01:53.995Z,51.78
2022-12-16T13:04:43.613Z,57.90
2022-12-16T13:07:30.824Z,52.45
2022-12-16T13:10:49.731Z,54.10
2022-12-16T13:13:49.959Z,52.05
2022-12-16T13:17:06.901Z,54.45
2022-12-16T13:19:58.292Z,53.22
2022-12-16T13:22:44.775Z,58.88
2022-12-16T13:25:51.537Z,59.50
2022-12-16T13:28:40.565Z,60.57
2022-12-16T13:31:27.647Z,58.95
2022-12-16T13:34:21.706Z,55.33
2022-12-16T13:37:12.151Z,58.10
2022-12-16T13:39:58.262Z,55.80
2022-12-16T13:43:05.747Z,58.70
2022-12-16T13:45:53.642Z,59.60
2022-12-16T13:48:53.938Z,54.65
2022-12-16T13:52:11.489Z,62.30
2022-12-16T13:55:00.235Z,54.60
2022-12-16T13:57:47.857Z,55.17
2022-12-16T14:00:39.341Z,59.30
2022-12-16T14:03:36.311Z,60.50
2022-12-16T14:09:11.350Z,60.83
2022-12-16T14:14:47.828Z,60.95
2022-12-16T14:17:39.567Z,60.55
2022-12-16T14:20:29.739Z,62.53
2022-12-16T14:23:47.338Z,58.88
2022-12-16T14:26:26.577Z,64.18
2022-12-16T14:29:13.436Z,64.03
2022-12-16T14:32:00.372Z,64.00
2022-12-16T14:34:52.347Z,65.57
2022-12-16T14:37:49.102Z,65.75
2022-12-16T14:40:35.857Z,60.55
2022-12-16T14:43:27.320Z,63.97
2022-12-16T14:46:14.010Z,61.05
2022-12-16T14:49:01.647Z,62.50
2022-12-16T14:51:51.298Z,60.67
2022-12-16T14:54:41.349Z,56.60
2022-12-16T14:57:28.698Z,60.05
2022-12-16T15:03:06.065Z,64.93
2022-12-16T15:05:53.294Z,60.78
2022-12-16T15:08:43.881Z,61.72
2022-12-16T15:11:33.300Z,59.95
2022-12-16T15:14:20.081Z,59.27
2022-12-16T15:17:08.874Z,58.30
2022-12-16T15:20:02.947Z,57.60
2022-12-16T15:22:50.952Z,56.22
2022-12-16T15:25:42.238Z,53.45
2022-12-16T15:28:16.303Z,55.50
2022-12-16T15:31:04.554Z,55.25
2022-12-16T15:33:55.143Z,57.30
2022-12-16T15:36:41.187Z,57.67
2022-12-16T15:39:34.532Z,59.05
2022-12-16T15:43:01.597Z,58.72
2022-12-16T15:45:51.830Z,58.05
2022-12-16T15:48:40.442Z,64.22
2022-12-16T15:51:40.404Z,53.13
2022-12-16T15:54:34.780Z,56.47
2022-12-16T15:57:43.702Z,54.78
2022-12-16T16:00:38.375Z,56.50
2022-12-16T16:03:46.778Z,61.55
2022-12-16T16:06:38.676Z,56.63
2022-12-16T16:09:29.890Z,60.10
2022-12-16T16:12:34.133Z,61.00
2022-12-16T16:15:26.211Z,57.97
2022-12-16T16:18:14.327Z,60.88
2022-12-16T16:21:01.926Z,59.10
2022-12-16T16:23:51.352Z,59.75
2022-12-16T16:26:38.894Z,57.85
2022-12-16T16:29:28.013Z,54.90
2022-12-16T16:32:18.541Z,55.47
2022-12-16T16:35:08.680Z,59.13
2022-12-16T16:37:55.938Z,58.00
2022-12-16T16:40:47.385Z,61.25
2022-12-16T16:43:34.938Z,60.03
2022-12-16T16:46:28.446Z,61.45
2022-12-16T16:49:19.475Z,58.63
2022-12-16T16:52:07.311Z,61.00
2022-12-16T16:54:54.686Z,59.78
2022-12-16T16:57:43.052Z,60.42
2022-12-16T17:00:31.786Z,57.20
2022-12-16T17:03:21.000Z,63.07
2022-12-16T17:06:10.979Z,62.37
2022-12-16T17:09:00.357Z,60.83
2022-12-16T17:11:47.318Z,61.90
2022-12-16T17:14:35.051Z,58.92
2022-12-16T17:17:21.902Z,60.85
2022-12-16T17:20:09.462Z,61.05
2022-12-16T17:23:01.330Z,62.37
2022-12-16T17:25:48.303Z,62.43
2022-12-16T17:28:36.076Z,63.25
2022-12-16T17:31:24.263Z,62.47
2022-12-16T17:34:11.519Z,65.73
2022-12-16T17:37:00.204Z,67.65
2022-12-16T17:39:50.497Z,69.93
2022-12-16T17:42:40.586Z,68.00
2022-12-16T17:45:30.275Z,66.60
2022-12-16T17:48:17.477Z,69.07
2022-12-16T17:51:04.360Z,67.28
2022-12-16T17:53:55.712Z,66.20
2022-12-16T17:56:48.967Z,69.00
2022-12-16T17:59:36.524Z,72.77
2022-12-16T18:02:24.817Z,73.25
2022-12-16T18:05:12.380Z,73.22
2022-12-16T18:07:59.331Z,70.63
2022-12-16T18:10:46.527Z,71.25
2022-12-16T18:13:35.917Z,73.70
2022-12-16T18:16:23.809Z,76.40
2022-12-16T18:19:10.821Z,75.20
2022-12-16T18:21:59.206Z,74.70
2022-12-16T18:24:48.582Z,77.40
2022-12-16T18:27:33.464Z,72.40
2022-12-16T18:30:27.252Z,75.95
2022-12-16T18:33:15.196Z,75.65
2022-12-16T18:36:01.763Z,78.90
2022-12-16T18:41:35.052Z,71.53
2022-12-16T18:44:22.383Z,71.45
2022-12-16T18:47:14.131Z,74.53
2022-12-16T18:50:04.150Z,74.55
2022-12-16T18:52:50.617Z,74.57
2022-12-16T18:55:37.351Z,74.47
2022-12-16T19:01:32.298Z,74.00
2022-12-16T19:04:22.164Z,73.50
2022-12-16T19:07:08.048Z,71.25
2022-12-16T19:09:55.603Z,69.75
2022-12-16T19:12:41.859Z,70.43
2022-12-16T19:15:29.672Z,69.90
2022-12-16T19:18:15.988Z,72.38
2022-12-16T19:21:11.025Z,73.03
2022-12-16T19:23:57.872Z,71.13
2022-12-16T19:26:45.502Z,72.90
2022-12-16T19:29:32.257Z,72.50
2022-12-16T19:32:20.843Z,73.97
2022-12-16T19:35:08.776Z,74.60
2022-12-16T19:38:05.939Z,73.43
2022-12-16T19:40:53.877Z,71.35
2022-12-16T19:43:41.894Z,76.07
2022-12-16T19:46:31.145Z,73.25
2022-12-16T19:49:17.923Z,68.10
2022-12-16T19:52:06.598Z,78.40
2022-12-16T19:54:58.088Z,74.63
2022-12-16T19:57:45.733Z,74.20
2022-12-16T20:00:32.018Z,77.55
2022-12-16T20:03:20.465Z,72.63
2022-12-16T20:06:15.090Z,77.57
2022-12-16T20:09:05.090Z,76.45
2022-12-16T20:11:54.862Z,79.07
2022-12-16T20:14:42.862Z,80.50
2022-12-16T20:17:30.785Z,74.43
2022-12-16T20:20:18.494Z,74.22
2022-12-16T20:23:05.306Z,78.50
2022-12-16T20:29:07.644Z,79.47
2022-12-16T20:31:56.176Z,84.85
2022-12-16T20:34:45.994Z,82.55
2022-12-16T20:37:33.032Z,72.70
2022-12-16T20:40:22.986Z,74.80
2022-12-16T20:43:12.230Z,74.55
2022-12-16T20:46:05.034Z,73.40
2022-12-16T20:48:53.597Z,75.55
2022-12-16T20:51:43.636Z,77.95
2022-12-16T20:54:33.425Z,74.75
2022-12-16T20:57:20.985Z,77.10
2022-12-16T21:00:10.628Z,78.43
2022-12-16T21:03:02.937Z,73.30
2022-12-16T21:05:49.236Z,76.57
2022-12-16T21:08:37.633Z,72.25
2022-12-16T21:11:25.562Z,74.60
2022-12-16T21:14:12.821Z,74.53
2022-12-16T21:17:00.048Z,73.25
2022-12-16T21:19:50.118Z,72.85
2022-12-16T21:25:33.323Z,74.17
2022-12-16T21:28:19.228Z,70.90
2022-12-16T21:31:09.446Z,72.25
2022-12-16T21:33:56.647Z,72.18
2022-12-16T21:36:46.031Z,71.65
2022-12-16T21:39:33.252Z,74.53
2022-12-16T21:42:35.502Z,72.15
2022-12-16T21:45:27.016Z,73.25
2022-12-16T21:48:14.854Z,70.75
2022-12-16T21:51:07.156Z,70.68
2022-12-16T21:53:57.229Z,72.27
2022-12-16T21:56:43.913Z,71.35
2022-12-16T21:59:32.477Z,73.18
2022-12-16T22:02:19.608Z,71.35
2022-12-16T22:05:07.892Z,73.18
2022-12-16T22:07:56.212Z,72.05
2022-12-16T22:13:32.196Z,72.00
2022-12-16T22:16:19.785Z,73.93
2022-12-16T22:19:09.916Z,69.32
2022-12-16T22:21:58.825Z,71.43
2022-12-16T22:24:50.309Z,72.68
2022-12-16T22:27:41.454Z,69.93
2022-12-16T22:30:29.389Z,69.27
2022-12-16T22:33:28.331Z,73.37
2022-12-16T22:36:19.583Z,69.40
2022-12-16T22:39:07.551Z,72.90
2022-12-16T22:41:54.775Z,67.85
2022-12-16T22:44:47.060Z,70.13
2022-12-16T22:47:35.079Z,68.13
2022-12-16T22:50:24.615Z,72.38
2022-12-16T22:53:11.824Z,69.65
2022-12-16T22:56:05.661Z,68.75
2022-12-16T22:58:54.728Z,70.60
2022-12-16T23:01:49.737Z,66.95
2022-12-16T23:04:36.744Z,69.53
2022-12-16T23:07:33.675Z,69.38
2022-12-16T23:10:22.319Z,67.25
2022-12-16T23:13:08.257Z,64.40
2022-12-16T23:15:56.542Z,67.32
2022-12-16T23:18:47.522Z,69.63
2022-12-16T23:21:35.134Z,68.03
2022-12-16T23:24:24.071Z,68.70
2022-12-16T23:27:11.563Z,72.40
2022-12-16T23:29:58.415Z,71.13
2022-12-16T23:32:46.374Z,70.07
2022-12-16T23:35:37.049Z,73.00
2022-12-16T23:38:25.105Z,71.80
2022-12-16T23:41:14.400Z,71.20
2022-12-16T23:44:03.649Z,74.90
2022-12-16T23:46:50.320Z,71.72
2022-12-16T23:49:37.257Z,73.35
2022-12-16T23:52:27.244Z,72.68
2022-12-16T23:55:14.221Z,70.60
2022-12-16T23:58:01.920Z,71.00
